MSC Ingrid — HOHA — position and weather

sailwx.info

Track history (hours):
 
Tides and Currents Weather Stations Pressure Air Temp Water Temp Dewpoint Dewpoint Depression Visibility Wind Speed Wind Dir Waves Ship Positions

MSC Ingrid

Last reported at 2016-May-06 04:32 UTC. Time now 2016-May-06 05:27 UTC.
Position N 37°57' E 023°36'.

Length 294 m; draft 12.1 m.

Type: Ship (hazmat cat A). MMSI: 354505000.

Date/timePositionNaut miles runAvg speedWind from/ knotsBaromVisibWave heightAir tempDewpointWater temp
2016-May-06 04:32N 37°57' E 023°36'0 0.0
2016-May-06 03:32N 37°57' E 023°36'0 0.0
2016-May-06 02:32N 37°57' E 023°36'0 0.0
2016-May-06 01:32N 37°57' E 023°36'0 0.0
2016-May-06 00:32N 37°57' E 023°36'0 0.0
2016-May-05 23:32N 37°57' E 023°36'0 0.0
2016-May-05 22:32N 37°57' E 023°36'0 0.0
2016-May-05 21:32N 37°57' E 023°36'4 3.9
2016-May-05 20:33N 37°54' E 023°38'1 0.6
2016-May-05 19:33N 37°53' E 023°38'1 1.0
2016-May-05 18:33N 37°52' E 023°38'9 9.4
2016-May-05 17:33N 37°44' E 023°43'1010.3
2016-May-05 16:33N 37°33' E 023°44'1515.2
2016-May-05 15:33N 37°18' E 023°41'36115.0
2016-May-04 15:32N 37°44' E 016°07'1717.6
2016-May-04 14:33N 37°49' E 015°47'1717.0
2016-May-04 13:33N 38°03' E 015°34'1515.2
2016-May-04 12:33N 38°18' E 015°41'1211.8
2016-May-04 11:33N 38°26' E 015°51'3 2.9
2016-May-04 10:31N 38°27' E 015°54'0 0.0
2016-May-04 09:31N 38°27' E 015°54'0 0.0
2016-May-04 08:25N 38°27' E 015°54'0 0.0
2016-May-04 07:31N 38°27' E 015°54'0 0.0
2016-May-04 06:31N 38°27' E 015°54'0 0.0
2016-May-04 05:31N 38°27' E 015°54'0 0.0
2016-May-04 04:28N 38°27' E 015°54'0 0.0
2016-May-04 03:28N 38°27' E 015°54'0 0.0
2016-May-04 02:28N 38°27' E 015°54'0 0.0
2016-May-04 01:28N 38°27' E 015°54'0 0.0
2016-May-04 00:31N 38°27' E 015°54'0 0.0
2016-May-03 23:22N 38°27' E 015°54'0 0.0
2016-May-03 22:31N 38°27' E 015°54'0 0.0
2016-May-03 21:31N 38°27' E 015°54'1 0.2
2016-May-03 18:33N 38°27' E 015°54'2 2.1
2016-May-03 17:32N 38°27' E 015°51'3 3.3
2016-May-03 16:34N 38°26' E 015°47'2 2.1
2016-May-03 15:33N 38°27' E 015°44'10 9.6
2016-May-03 14:32N 38°25' E 015°32'9 9.2
2016-May-03 13:33N 38°22' E 015°21'1413.8
2016-May-03 12:33N 38°19' E 015°04'5614.1
2016-May-03 08:33N 38°22' E 013°52'1413.9
2016-May-03 07:34N 38°23' E 013°34'1615.9
2016-May-03 06:33N 38°25' E 013°14'1615.8
2016-May-03 05:34N 38°27' E 012°54'87717.8
2016-May-01 04:10N 35°60' W 005°12'1321.1
2016-May-01 03:34N 35°58' W 005°27'18918.8
2016-Apr-30 17:32N 36°34' W 009°17'2120.3
2016-Apr-30 16:29N 36°51' W 009°33'2020.9
2016-Apr-30 15:33N 37°10' W 009°40'2120.9
2016-Apr-30 14:32N 37°30' W 009°47'1915.9
2016-Apr-30 13:20N 37°48' W 009°54'1619.6
2016-Apr-30 12:32N 38°03' W 009°59'75618.9
2016-Apr-28 20:33N 49°46' W 003°32'1919.2
2016-Apr-28 19:34N 49°57' W 003°07'2020.2
2016-Apr-28 18:34N 50°02' W 002°37'8521.2
2016-Apr-28 14:33N 50°24' W 000°29'1919.3
2016-Apr-28 13:34N 50°30' W 000°00'1918.7
2016-Apr-28 12:31N 50°35' E 000°29'2914.6
2016-Apr-28 10:33N 50°53' E 001°06'1717.2
2016-Apr-28 09:33N 51°04' E 001°26'1716.7
2016-Apr-28 08:33N 51°15' E 001°46'1515.3
2016-Apr-28 07:33N 51°29' E 001°57'1414.4
2016-Apr-28 06:33N 51°39' E 002°13'5613.6
2016-Apr-28 02:25N 52°04' E 003°34'1214.4
2016-Apr-28 01:34N 52°03' E 003°54'8 8.4
2016-Apr-28 00:33N 51°57' E 004°05'1 0.8
2016-Apr-27 23:32N 51°58' E 004°04'0 0.0
2016-Apr-27 22:32N 51°58' E 004°04'0 0.0
2016-Apr-27 21:32N 51°58' E 004°04'0 0.0
2016-Apr-27 20:32N 51°58' E 004°04'0 0.0
2016-Apr-27 19:32N 51°58' E 004°04'0 0.0
2016-Apr-27 18:32N 51°58' E 004°04'0 0.0
2016-Apr-27 17:32N 51°58' E 004°04'0 0.0
2016-Apr-27 16:32N 51°58' E 004°04'0 0.0
2016-Apr-27 15:32N 51°58' E 004°04'0 0.0
2016-Apr-27 14:32N 51°58' E 004°04'0 0.0
2016-Apr-27 13:32N 51°58' E 004°04'0 0.0
2016-Apr-27 12:32N 51°58' E 004°04'0 0.2
2016-Apr-27 11:34N 51°58' E 004°04'8 8.2
2016-Apr-27 10:33N 52°00' E 003°51'9 8.5
2016-Apr-27 09:33N 51°58' E 003°38'1110.1
2016-Apr-27 08:30N 51°54' E 003°22'8 7.4
2016-Apr-27 07:24N 51°47' E 003°16'2 2.7
2016-Apr-27 06:33N 51°44' E 003°14'1312.9
2016-Apr-27 05:33N 51°32' E 003°07'8 8.4
2016-Apr-27 04:33N 51°25' E 003°13'1515.0
2016-Apr-27 03:33N 51°26' E 003°37'1110.7
2016-Apr-27 02:33N 51°21' E 003°52'7 7.4
2016-Apr-27 01:33N 51°22' E 004°03'8 8.0
2016-Apr-27 00:33N 51°21' E 004°16'1 0.9
2016-Apr-26 23:33N 51°21' E 004°17'1 0.5
2016-Apr-26 22:33N 51°21' E 004°18'2 1.7
2016-Apr-26 21:33N 51°20' E 004°20'0 0.0
2016-Apr-26 20:33N 51°20' E 004°20'0 0.0
2016-Apr-26 19:33N 51°20' E 004°20'0 0.0
2016-Apr-26 18:31N 51°20' E 004°20'0 0.0
2016-Apr-26 17:31N 51°20' E 004°20'0 0.0
2016-Apr-26 16:31N 51°20' E 004°20'0 0.0
2016-Apr-26 15:31N 51°20' E 004°20'0 0.0
2016-Apr-26 14:28N 51°20' E 004°20'0 0.0
2016-Apr-26 13:31N 51°20' E 004°20'0 0.0
2016-Apr-26 12:31N 51°20' E 004°20'0 0.0
2016-Apr-26 11:31N 51°20' E 004°20'0 0.0
2016-Apr-26 10:31N 51°20' E 004°20'0 0.0
2016-Apr-26 09:31N 51°20' E 004°20'0 0.0
2016-Apr-26 08:31N 51°20' E 004°20'0 0.0
2016-Apr-26 07:31N 51°20' E 004°20'0 0.0
2016-Apr-26 06:31N 51°20' E 004°20'0 0.0
2016-Apr-26 05:31N 51°20' E 004°20'  
Track history (hours):
 
Tides and Currents Weather Stations Pressure Air Temp Water Temp Dewpoint Dewpoint Depression Visibility Wind Speed Wind Dir Waves Ship Positions

MSC Ingrid

Last reported at 2016-May-06 04:32 UTC. Time now 2016-May-06 05:27 UTC.
Position N 37°57' E 023°36'.

Length 294 m; draft 12.1 m.

Type: Ship (hazmat cat A). MMSI: 354505000.

Date/timePositionNaut miles runAvg speedWind from/ knotsBaromVisibWave heightAir tempDewpointWater temp
2016-May-06 04:32N 37°57' E 023°36'0 0.0
2016-May-06 03:32N 37°57' E 023°36'0 0.0
2016-May-06 02:32N 37°57' E 023°36'0 0.0
2016-May-06 01:32N 37°57' E 023°36'0 0.0
2016-May-06 00:32N 37°57' E 023°36'0 0.0
2016-May-05 23:32N 37°57' E 023°36'0 0.0
2016-May-05 22:32N 37°57' E 023°36'0 0.0
2016-May-05 21:32N 37°57' E 023°36'4 3.9
2016-May-05 20:33N 37°54' E 023°38'1 0.6
2016-May-05 19:33N 37°53' E 023°38'1 1.0
2016-May-05 18:33N 37°52' E 023°38'9 9.4
2016-May-05 17:33N 37°44' E 023°43'1010.3
2016-May-05 16:33N 37°33' E 023°44'1515.2
2016-May-05 15:33N 37°18' E 023°41'36115.0
2016-May-04 15:32N 37°44' E 016°07'1717.6
2016-May-04 14:33N 37°49' E 015°47'1717.0
2016-May-04 13:33N 38°03' E 015°34'1515.2
2016-May-04 12:33N 38°18' E 015°41'1211.8
2016-May-04 11:33N 38°26' E 015°51'3 2.9
2016-May-04 10:31N 38°27' E 015°54'0 0.0
2016-May-04 09:31N 38°27' E 015°54'0 0.0
2016-May-04 08:25N 38°27' E 015°54'0 0.0
2016-May-04 07:31N 38°27' E 015°54'0 0.0
2016-May-04 06:31N 38°27' E 015°54'0 0.0
2016-May-04 05:31N 38°27' E 015°54'0 0.0
2016-May-04 04:28N 38°27' E 015°54'0 0.0
2016-May-04 03:28N 38°27' E 015°54'0 0.0
2016-May-04 02:28N 38°27' E 015°54'0 0.0
2016-May-04 01:28N 38°27' E 015°54'0 0.0
2016-May-04 00:31N 38°27' E 015°54'0 0.0
2016-May-03 23:22N 38°27' E 015°54'0 0.0
2016-May-03 22:31N 38°27' E 015°54'0 0.0
2016-May-03 21:31N 38°27' E 015°54'1 0.2
2016-May-03 18:33N 38°27' E 015°54'2 2.1
2016-May-03 17:32N 38°27' E 015°51'3 3.3
2016-May-03 16:34N 38°26' E 015°47'2 2.1
2016-May-03 15:33N 38°27' E 015°44'10 9.6
2016-May-03 14:32N 38°25' E 015°32'9 9.2
2016-May-03 13:33N 38°22' E 015°21'1413.8
2016-May-03 12:33N 38°19' E 015°04'5614.1
2016-May-03 08:33N 38°22' E 013°52'1413.9
2016-May-03 07:34N 38°23' E 013°34'1615.9
2016-May-03 06:33N 38°25' E 013°14'1615.8
2016-May-03 05:34N 38°27' E 012°54'87717.8
2016-May-01 04:10N 35°60' W 005°12'1321.1
2016-May-01 03:34N 35°58' W 005°27'18918.8
2016-Apr-30 17:32N 36°34' W 009°17'2120.3
2016-Apr-30 16:29N 36°51' W 009°33'2020.9
2016-Apr-30 15:33N 37°10' W 009°40'2120.9
2016-Apr-30 14:32N 37°30' W 009°47'1915.9
2016-Apr-30 13:20N 37°48' W 009°54'1619.6
2016-Apr-30 12:32N 38°03' W 009°59'75618.9
2016-Apr-28 20:33N 49°46' W 003°32'1919.2
2016-Apr-28 19:34N 49°57' W 003°07'2020.2
2016-Apr-28 18:34N 50°02' W 002°37'8521.2
2016-Apr-28 14:33N 50°24' W 000°29'1919.3
2016-Apr-28 13:34N 50°30' W 000°00'1918.7
2016-Apr-28 12:31N 50°35' E 000°29'2914.6
2016-Apr-28 10:33N 50°53' E 001°06'1717.2
2016-Apr-28 09:33N 51°04' E 001°26'1716.7
2016-Apr-28 08:33N 51°15' E 001°46'1515.3
2016-Apr-28 07:33N 51°29' E 001°57'1414.4
2016-Apr-28 06:33N 51°39' E 002°13'5613.6
2016-Apr-28 02:25N 52°04' E 003°34'1214.4
2016-Apr-28 01:34N 52°03' E 003°54'8 8.4
2016-Apr-28 00:33N 51°57' E 004°05'1 0.8
2016-Apr-27 23:32N 51°58' E 004°04'0 0.0
2016-Apr-27 22:32N 51°58' E 004°04'0 0.0
2016-Apr-27 21:32N 51°58' E 004°04'0 0.0
2016-Apr-27 20:32N 51°58' E 004°04'0 0.0
2016-Apr-27 19:32N 51°58' E 004°04'0 0.0
2016-Apr-27 18:32N 51°58' E 004°04'0 0.0
2016-Apr-27 17:32N 51°58' E 004°04'0 0.0
2016-Apr-27 16:32N 51°58' E 004°04'0 0.0
2016-Apr-27 15:32N 51°58' E 004°04'0 0.0
2016-Apr-27 14:32N 51°58' E 004°04'0 0.0
2016-Apr-27 13:32N 51°58' E 004°04'0 0.0
2016-Apr-27 12:32N 51°58' E 004°04'0 0.2
2016-Apr-27 11:34N 51°58' E 004°04'8 8.2
2016-Apr-27 10:33N 52°00' E 003°51'9 8.5
2016-Apr-27 09:33N 51°58' E 003°38'1110.1
2016-Apr-27 08:30N 51°54' E 003°22'8 7.4
2016-Apr-27 07:24N 51°47' E 003°16'2 2.7
2016-Apr-27 06:33N 51°44' E 003°14'1312.9
2016-Apr-27 05:33N 51°32' E 003°07'8 8.4
2016-Apr-27 04:33N 51°25' E 003°13'1515.0
2016-Apr-27 03:33N 51°26' E 003°37'1110.7
2016-Apr-27 02:33N 51°21' E 003°52'7 7.4
2016-Apr-27 01:33N 51°22' E 004°03'8 8.0
2016-Apr-27 00:33N 51°21' E 004°16'1 0.9
2016-Apr-26 23:33N 51°21' E 004°17'1 0.5
2016-Apr-26 22:33N 51°21' E 004°18'2 1.7
2016-Apr-26 21:33N 51°20' E 004°20'0 0.0
2016-Apr-26 20:33N 51°20' E 004°20'0 0.0
2016-Apr-26 19:33N 51°20' E 004°20'0 0.0
2016-Apr-26 18:31N 51°20' E 004°20'0 0.0
2016-Apr-26 17:31N 51°20' E 004°20'0 0.0
2016-Apr-26 16:31N 51°20' E 004°20'0 0.0
2016-Apr-26 15:31N 51°20' E 004°20'0 0.0
2016-Apr-26 14:28N 51°20' E 004°20'0 0.0
2016-Apr-26 13:31N 51°20' E 004°20'0 0.0
2016-Apr-26 12:31N 51°20' E 004°20'0 0.0
2016-Apr-26 11:31N 51°20' E 004°20'0 0.0
2016-Apr-26 10:31N 51°20' E 004°20'0 0.0
2016-Apr-26 09:31N 51°20' E 004°20'0 0.0
2016-Apr-26 08:31N 51°20' E 004°20'0 0.0
2016-Apr-26 07:31N 51°20' E 004°20'0 0.0
2016-Apr-26 06:31N 51°20' E 004°20'0 0.0
2016-Apr-26 05:31N 51°20' E 004°20'  

Dump ship's entire track history